Holst, Minnesota
Current Conditions -  °F | °C
As of 3:15 AM on Sunday 21 Dec 2014 (Local Time) from KFSE Reporting Station
Haze Haze  
Wind Chill: 13°   Ceiling: 800
Heat Index: 27°   Visibility: 5mi
Dew Point: 27°   Wind: 20mph
Humidity: 100%   Direction: 170°S
Pressure: 29.82"   Gusts: NA
Location:  47.6306°N, 95.3701°W
Report Text: KFSE 210915Z AUTO 17017KT 5SM BR OVC008 M03/M03 A2982 RMK AO2
Loading
Personal Weather Stations






























Interactive Weather Map New forecast layout! Learn more

10-Day Weather Forecast

Advertisements
Track Severe Weather on mobile